sensor_id;sensor_type;location;lat;lon;timestamp;pressure;altitude;pressure_sealevel;temperature;humidity
76044;BME280;64740;34.694;33.088;2022-12-29T00:04:37;1048.8;;;17.6;50.6
76044;BME280;64740;34.694;33.088;2022-12-29T00:10:06;1048.8;;;17.5;50.6
76044;BME280;64740;34.694;33.088;2022-12-29T00:14:33;1048.8;;;17.5;50.6
76044;BME280;64740;34.694;33.088;2022-12-29T00:19:57;1048.8;;;17.5;50.6
76044;BME280;64740;34.694;33.088;2022-12-29T00:25:04;1048.8;;;17.5;50.6
76044;BME280;64740;34.694;33.088;2022-12-29T00:30:01;1048.8;;;17.4;50.5
76044;BME280;64740;34.694;33.088;2022-12-29T00:35:12;1048.7;;;17.4;50.7
76044;BME280;64740;34.694;33.088;2022-12-29T00:39:59;1048.7;;;17.4;50.7
76044;BME280;64740;34.694;33.088;2022-12-29T00:45:09;1048.6;;;17.4;50.7
76044;BME280;64740;34.694;33.088;2022-12-29T00:50:01;1048.6;;;17.4;50.8
76044;BME280;64740;34.694;33.088;2022-12-29T00:54:45;1048.5;;;17.4;50.8
76044;BME280;64740;34.694;33.088;2022-12-29T01:00:10;1048.5;;;17.4;50.8
76044;BME280;64740;34.694;33.088;2022-12-29T01:04:59;1048.5;;;17.4;50.7
76044;BME280;64740;34.694;33.088;2022-12-29T01:10:01;1048.5;;;17.4;50.8
76044;BME280;64740;34.694;33.088;2022-12-29T01:14:51;1048.4;;;17.4;50.8
76044;BME280;64740;34.694;33.088;2022-12-29T01:19:33;1048.3;;;17.4;50.8
76044;BME280;64740;34.694;33.088;2022-12-29T01:25:13;1048.3;;;17.4;50.8
76044;BME280;64740;34.694;33.088;2022-12-29T01:29:55;1048.3;;;17.4;50.8
76044;BME280;64740;34.694;33.088;2022-12-29T01:35:01;1048.3;;;17.3;50.8
76044;BME280;64740;34.694;33.088;2022-12-29T01:39:49;1048.3;;;17.3;50.8
76044;BME280;64740;34.694;33.088;2022-12-29T01:44:49;1048.3;;;17.3;50.8
76044;BME280;64740;34.694;33.088;2022-12-29T01:50:14;1048.1;;;17.3;50.9
76044;BME280;64740;34.694;33.088;2022-12-29T01:54:42;1048.1;;;17.3;50.9
76044;BME280;64740;34.694;33.088;2022-12-29T01:59:50;1048.1;;;17.3;50.8
76044;BME280;64740;34.694;33.088;2022-12-29T02:05:05;1048;;;17.3;50.7
76044;BME280;64740;34.694;33.088;2022-12-29T02:09:47;1048;;;17.2;50.9
76044;BME280;64740;34.694;33.088;2022-12-29T02:15:11;1047.9;;;17.2;50.9
76044;BME280;64740;34.694;33.088;2022-12-29T02:25:22;1047.9;;;17.1;50.9
76044;BME280;64740;34.694;33.088;2022-12-29T02:30:00;1047.9;;;17.1;50.9
76044;BME280;64740;34.694;33.088;2022-12-29T02:34:53;1047.9;;;17.1;50.9
76044;BME280;64740;34.694;33.088;2022-12-29T02:40:16;1047.8;;;17.1;51
76044;BME280;64740;34.694;33.088;2022-12-29T02:45:19;1047.8;;;17.1;51
76044;BME280;64740;34.694;33.088;2022-12-29T02:49:56;1047.8;;;17.1;51
76044;BME280;64740;34.694;33.088;2022-12-29T02:55:08;1047.8;;;17.2;50.9
76044;BME280;64740;34.694;33.088;2022-12-29T02:59:41;1047.8;;;17.1;51
76044;BME280;64740;34.694;33.088;2022-12-29T03:05:17;1047.8;;;17.1;51
76044;BME280;64740;34.694;33.088;2022-12-29T03:10:07;1047.8;;;17.1;51
76044;BME280;64740;34.694;33.088;2022-12-29T03:15:08;1047.8;;;17.1;51
76044;BME280;64740;34.694;33.088;2022-12-29T03:19:46;1047.8;;;17.1;51
76044;BME280;64740;34.694;33.088;2022-12-29T03:24:52;1047.9;;;17.1;51
76044;BME280;64740;34.694;33.088;2022-12-29T03:30:15;1048;;;17.1;51
76044;BME280;64740;34.694;33.088;2022-12-29T03:34:51;1048;;;17.1;51
76044;BME280;64740;34.694;33.088;2022-12-29T03:39:55;1048;;;17;51.1
76044;BME280;64740;34.694;33.088;2022-12-29T03:45:04;1048;;;17;51.3
76044;BME280;64740;34.694;33.088;2022-12-29T03:49:33;1048;;;17;51.2
76044;BME280;64740;34.694;33.088;2022-12-29T03:55:13;1048.1;;;17;51.2
76044;BME280;64740;34.694;33.088;2022-12-29T04:00:02;1048.1;;;17;51.2
76044;BME280;64740;34.694;33.088;2022-12-29T04:05:06;1048.1;;;16.9;51.3
76044;BME280;64740;34.694;33.088;2022-12-29T04:09:33;1048.1;;;16.9;51.3
76044;BME280;64740;34.694;33.088;2022-12-29T04:14:53;1048.2;;;16.9;51.2
76044;BME280;64740;34.694;33.088;2022-12-29T04:20:15;1048.4;;;16.9;51
76044;BME280;64740;34.694;33.088;2022-12-29T04:24:33;1048.4;;;16.9;51
76044;BME280;64740;34.694;33.088;2022-12-29T04:29:43;1048.4;;;16.9;51.2
76044;BME280;64740;34.694;33.088;2022-12-29T04:35:05;1048.5;;;16.9;51.3
76044;BME280;64740;34.694;33.088;2022-12-29T04:39:33;1048.5;;;16.9;51.2
76044;BME280;64740;34.694;33.088;2022-12-29T04:45:13;1048.6;;;16.9;51.2
76044;BME280;64740;34.694;33.088;2022-12-29T04:50:13;1048.6;;;16.9;51.2
76044;BME280;64740;34.694;33.088;2022-12-29T04:55:11;1048.6;;;16.9;51.1
76044;BME280;64740;34.694;33.088;2022-12-29T04:59:33;1048.6;;;16.9;51.1
76044;BME280;64740;34.694;33.088;2022-12-29T05:04:49;1048.6;;;16.9;51.1
76044;BME280;64740;34.694;33.088;2022-12-29T05:10:11;1048.7;;;16.9;51.1
76044;BME280;64740;34.694;33.088;2022-12-29T05:14:33;1048.7;;;16.9;51.1
76044;BME280;64740;34.694;33.088;2022-12-29T05:19:53;1048.8;;;16.9;51.1
76044;BME280;64740;34.694;33.088;2022-12-29T05:25:04;1048.8;;;16.9;51.2
76044;BME280;64740;34.694;33.088;2022-12-29T05:29:39;1048.8;;;16.9;51.2
76044;BME280;64740;34.694;33.088;2022-12-29T05:35:15;1048.8;;;17;51
76044;BME280;64740;34.694;33.088;2022-12-29T05:39:53;1048.8;;;17;51
76044;BME280;64740;34.694;33.088;2022-12-29T05:44:43;1048.8;;;17.1;51
76044;BME280;64740;34.694;33.088;2022-12-29T05:49:41;1048.8;;;17.1;50.8
76044;BME280;64740;34.694;33.088;2022-12-29T05:55:13;1048.9;;;17.3;50.6
76044;BME280;64740;34.694;33.088;2022-12-29T06:00:16;1048.9;;;17.4;50.5
76044;BME280;64740;34.694;33.088;2022-12-29T06:04:43;1048.9;;;17.4;50.5
76044;BME280;64740;34.694;33.088;2022-12-29T06:09:53;1049;;;17.5;50.3
76044;BME280;64740;34.694;33.088;2022-12-29T06:15:14;1049;;;17.7;50.1
76044;BME280;64740;34.694;33.088;2022-12-29T06:19:41;1049;;;17.7;50.1
76044;BME280;64740;34.694;33.088;2022-12-29T06:25:04;1049.1;;;17.8;50
76044;BME280;64740;34.694;33.088;2022-12-29T06:30:02;1049.1;;;17.9;49.9
76044;BME280;64740;34.694;33.088;2022-12-29T06:34:53;1049.2;;;18.1;49.7
76044;BME280;64740;34.694;33.088;2022-12-29T06:40:14;1049.2;;;18.3;49.5
76044;BME280;64740;34.694;33.088;2022-12-29T06:45:17;1049.3;;;18.5;49.4
76044;BME280;64740;34.694;33.088;2022-12-29T06:50:17;1049.4;;;18.6;49.3
76044;BME280;64740;34.694;33.088;2022-12-29T06:55:17;1049.4;;;18.7;49.2
76044;BME280;64740;34.694;33.088;2022-12-29T06:59:53;1049.4;;;18.7;49.2
76044;BME280;64740;34.694;33.088;2022-12-29T07:05:13;1049.5;;;19;48.9
76044;BME280;64740;34.694;33.088;2022-12-29T07:09:33;1049.5;;;19;48.9
76044;BME280;64740;34.694;33.088;2022-12-29T07:15:04;1049.5;;;19.1;48.7
76044;BME280;64740;34.694;33.088;2022-12-29T07:20:04;1049.5;;;19.3;48.5
76044;BME280;64740;34.694;33.088;2022-12-29T07:24:53;1049.6;;;19.4;48.4
76044;BME280;64740;34.694;33.088;2022-12-29T07:29:33;1049.6;;;19.6;48.1
76044;BME280;64740;34.694;33.088;2022-12-29T07:35:13;1049.6;;;19.8;48
76044;BME280;64740;34.694;33.088;2022-12-29T07:40:13;1049.6;;;20;48.1
76044;BME280;64740;34.694;33.088;2022-12-29T07:44:33;1049.6;;;20;48.1
76044;BME280;64740;34.694;33.088;2022-12-29T07:49:53;1049.6;;;20.3;48.2
76044;BME280;64740;34.694;33.088;2022-12-29T07:55:11;1049.5;;;20.5;48.1
76044;BME280;64740;34.694;33.088;2022-12-29T07:59:53;1049.5;;;20.5;48.1
76044;BME280;64740;34.694;33.088;2022-12-29T08:05:06;1049.5;;;20.5;48.4
76044;BME280;64740;34.694;33.088;2022-12-29T08:10:06;1049.5;;;20.6;48.2
76044;BME280;64740;34.694;33.088;2022-12-29T08:14:53;1049.5;;;20.6;48.2
76044;BME280;64740;34.694;33.088;2022-12-29T08:19:33;1049.5;;;20.7;48.1
76044;BME280;64740;34.694;33.088;2022-12-29T08:25:19;1049.3;;;20.9;48.2
76044;BME280;64740;34.694;33.088;2022-12-29T08:30:17;1049.3;;;20.9;48.4
76044;BME280;64740;34.694;33.088;2022-12-29T08:34:44;1049.3;;;20.9;48.4
76044;BME280;64740;34.694;33.088;2022-12-29T08:39:33;1049.2;;;21;48.4
76044;BME280;64740;34.694;33.088;2022-12-29T08:45:15;1049.1;;;21.2;48.5
76044;BME280;64740;34.694;33.088;2022-12-29T08:49:33;1049.1;;;21.2;48.5
76044;BME280;64740;34.694;33.088;2022-12-29T08:55:06;1049.1;;;21.2;48.4
76044;BME280;64740;34.694;33.088;2022-12-29T09:35:06;1049;;;21.4;48.5
76044;BME280;64740;34.694;33.088;2022-12-29T09:40:06;1048.8;;;21.6;49.1
76044;BME280;64740;34.694;33.088;2022-12-29T09:45:14;1048.5;;;22;49.8
76044;BME280;64740;34.694;33.088;2022-12-29T09:50:18;1048.4;;;22.1;49.8
76044;BME280;64740;34.694;33.088;2022-12-29T09:54:56;1048.4;;;22.1;49.8
76044;BME280;64740;34.694;33.088;2022-12-29T09:59:44;1048.3;;;22.2;50.5
76044;BME280;64740;34.694;33.088;2022-12-29T10:05:18;1048.2;;;22.4;50.5
76044;BME280;64740;34.694;33.088;2022-12-29T10:10:10;1048.2;;;22.4;50.5
76044;BME280;64740;34.694;33.088;2022-12-29T10:14:38;1048.2;;;22.5;50.1
76044;BME280;64740;34.694;33.088;2022-12-29T10:19:38;1048.1;;;22.6;49.8
76044;BME280;64740;34.694;33.088;2022-12-29T10:25:10;1048.1;;;22.7;48.9
76044;BME280;64740;34.694;33.088;2022-12-29T10:30:10;1048.1;;;23;48.1
76044;BME280;64740;34.694;33.088;2022-12-29T10:35:20;1048;;;23.3;46.6
76044;BME280;64740;34.694;33.088;2022-12-29T10:40:14;1048;;;23.5;46.1
76044;BME280;64740;34.694;33.088;2022-12-29T10:44:56;1048;;;23.5;46.1
76044;BME280;64740;34.694;33.088;2022-12-29T10:49:36;1047.9;;;23.7;45.6
76044;BME280;64740;34.694;33.088;2022-12-29T10:55:17;1047.8;;;24;44.6
76044;BME280;64740;34.694;33.088;2022-12-29T11:00:10;1047.8;;;24;44.6
76044;BME280;64740;34.694;33.088;2022-12-29T11:04:43;1047.8;;;24.2;44.3
76044;BME280;64740;34.694;33.088;2022-12-29T11:09:44;1047.7;;;24.4;43.5
76044;BME280;64740;34.694;33.088;2022-12-29T11:15:12;1047.6;;;24.7;42.7
76044;BME280;64740;34.694;33.088;2022-12-29T11:19:56;1047.6;;;25;42
76044;BME280;64740;34.694;33.088;2022-12-29T11:25:16;1047.6;;;25.6;40.2
76044;BME280;64740;34.694;33.088;2022-12-29T11:30:22;1047.6;;;25.9;39.2
76044;BME280;64740;34.694;33.088;2022-12-29T11:34:34;1047.6;;;25.9;39.2
76044;BME280;64740;34.694;33.088;2022-12-29T11:39:36;1047.6;;;26.2;38.5
76044;BME280;64740;34.694;33.088;2022-12-29T11:45:20;1047.5;;;26.6;37.5
76044;BME280;64740;34.694;33.088;2022-12-29T11:50:15;1047.5;;;26.6;37.5
76044;BME280;64740;34.694;33.088;2022-12-29T11:54:34;1047.5;;;26.7;37.3
76044;BME280;64740;34.694;33.088;2022-12-29T12:00:14;1047.6;;;26.9;36.8
76044;BME280;64740;34.694;33.088;2022-12-29T12:05:10;1047.6;;;27.2;36.4
76044;BME280;64740;34.694;33.088;2022-12-29T12:10:12;1047.6;;;27.4;35.7
76044;BME280;64740;34.694;33.088;2022-12-29T12:15:22;1047.6;;;27.9;34.2
76044;BME280;64740;34.694;33.088;2022-12-29T12:20:18;1047.6;;;28;33.7
76044;BME280;64740;34.694;33.088;2022-12-29T12:24:57;1047.6;;;28;33.7
76044;BME280;64740;34.694;33.088;2022-12-29T12:29:59;1047.6;;;28.2;33.5
76044;BME280;64740;34.694;33.088;2022-12-29T12:35:21;1047.6;;;28.4;33
76044;BME280;64740;34.694;33.088;2022-12-29T12:41:13;1047.6;;;28.4;33
76044;BME280;64740;34.694;33.088;2022-12-29T12:45:26;1047.6;;;28;33.2
76044;BME280;64740;34.694;33.088;2022-12-29T12:50:02;1047.6;;;28;33.2
76044;BME280;64740;34.694;33.088;2022-12-29T12:55:18;1047.7;;;28;33.6
76044;BME280;64740;34.694;33.088;2022-12-29T13:00:10;1047.6;;;28.2;33.4
76044;BME280;64740;34.694;33.088;2022-12-29T13:04:59;1047.6;;;28.4;32.7
76044;BME280;64740;34.694;33.088;2022-12-29T13:09:38;1047.7;;;28.5;32.9
76044;BME280;64740;34.694;33.088;2022-12-29T13:14:37;1047.7;;;28.4;32.8
76044;BME280;64740;34.694;33.088;2022-12-29T13:19:43;1047.8;;;28.6;32.7
76044;BME280;64740;34.694;33.088;2022-12-29T13:25:23;1047.8;;;28.2;32.9
76044;BME280;64740;34.694;33.088;2022-12-29T13:30:10;1047.8;;;28.2;32.9
76044;BME280;64740;34.694;33.088;2022-12-29T13:34:46;1047.8;;;27.8;33.5
76044;BME280;64740;34.694;33.088;2022-12-29T13:40:11;1047.8;;;27.7;33.9
76044;BME280;64740;34.694;33.088;2022-12-29T13:45:16;1047.8;;;26.9;34.9
76044;BME280;64740;34.694;33.088;2022-12-29T13:50:16;1047.9;;;26.3;35.5
76044;BME280;64740;34.694;33.088;2022-12-29T13:54:35;1047.9;;;26.3;35.5
76044;BME280;64740;34.694;33.088;2022-12-29T13:59:57;1048;;;25.6;36.4
76044;BME280;64740;34.694;33.088;2022-12-29T14:04:34;1048;;;25;37.1
76044;BME280;64740;34.694;33.088;2022-12-29T14:09:47;1048;;;24.5;37.9
76044;BME280;64740;34.694;33.088;2022-12-29T14:15:21;1048.1;;;23.6;39.9
76044;BME280;64740;34.694;33.088;2022-12-29T14:19:34;1048.1;;;23.6;39.9
76044;BME280;64740;34.694;33.088;2022-12-29T14:24:42;1048.1;;;23.3;40.5
76044;BME280;64740;34.694;33.088;2022-12-29T14:35:41;1048;;;22.8;41.5
76044;BME280;64740;34.694;33.088;2022-12-29T14:40:19;1048.1;;;22.4;42.5
76044;BME280;64740;34.694;33.088;2022-12-29T14:44:46;1048.1;;;22.4;42.5
76044;BME280;64740;34.694;33.088;2022-12-29T14:49:56;1048.1;;;22.2;42.7
76044;BME280;64740;34.694;33.088;2022-12-29T14:54:58;1048.2;;;22;43.3
76044;BME280;64740;34.694;33.088;2022-12-29T14:59:46;1048.2;;;21.8;43.8
76044;BME280;64740;34.694;33.088;2022-12-29T15:05:27;1048.3;;;21.6;44.6
76044;BME280;64740;34.694;33.088;2022-12-29T15:09:34;1048.3;;;21.6;44.6
76044;BME280;64740;34.694;33.088;2022-12-29T15:14:34;1048.4;;;21.5;44.7
76044;BME280;64740;34.694;33.088;2022-12-29T15:19:48;1048.4;;;21.4;45
76044;BME280;64740;34.694;33.088;2022-12-29T15:25:12;1048.5;;;21.2;45.1
76044;BME280;64740;34.694;33.088;2022-12-29T15:30:20;1048.5;;;21;45.7
76044;BME280;64740;34.694;33.088;2022-12-29T15:35:21;1048.5;;;21;45.7
76044;BME280;64740;34.694;33.088;2022-12-29T15:39:56;1048.5;;;20.9;46
76044;BME280;64740;34.694;33.088;2022-12-29T15:44:56;1048.6;;;20.8;46.3
76044;BME280;64740;34.694;33.088;2022-12-29T15:49:34;1048.6;;;20.8;46.5
76044;BME280;64740;34.694;33.088;2022-12-29T15:55:21;1048.8;;;20.6;47
76044;BME280;64740;34.694;33.088;2022-12-29T15:59:58;1048.8;;;20.6;47
76044;BME280;64740;34.694;33.088;2022-12-29T16:04:48;1048.8;;;20.6;47.2
76044;BME280;64740;34.694;33.088;2022-12-29T16:09:41;1048.9;;;20.5;47.3
76044;BME280;64740;34.694;33.088;2022-12-29T16:14:58;1048.9;;;20.5;47.4
76044;BME280;64740;34.694;33.088;2022-12-29T16:20:19;1049.1;;;18.9;50.4
76044;BME280;64740;34.694;33.088;2022-12-29T16:24:46;1049.1;;;18.9;50.4
76044;BME280;64740;34.694;33.088;2022-12-29T16:29:34;1049.1;;;18;53.3
76044;BME280;64740;34.694;33.088;2022-12-29T16:35:02;1049.1;;;17.4;55.9
76044;BME280;64740;34.694;33.088;2022-12-29T16:39:56;1049.1;;;17;56.8
76044;BME280;64740;34.694;33.088;2022-12-29T16:45:31;1049.2;;;16.5;58.4
76044;BME280;64740;34.694;33.088;2022-12-29T16:49:56;1049.2;;;16.5;58.4
76044;BME280;64740;34.694;33.088;2022-12-29T16:54:34;1049.2;;;16.3;58.9
76044;BME280;64740;34.694;33.088;2022-12-29T17:00:17;1049.3;;;16.1;59.9
76044;BME280;64740;34.694;33.088;2022-12-29T17:05:11;1049.3;;;16;60
76044;BME280;64740;34.694;33.088;2022-12-29T17:10:18;1049.4;;;15.9;60.2
76044;BME280;64740;34.694;33.088;2022-12-29T17:14:35;1049.4;;;15.9;60.2
76044;BME280;64740;34.694;33.088;2022-12-29T17:20:21;1049.4;;;15.8;60.5
76044;BME280;64740;34.694;33.088;2022-12-29T17:25:00;1049.4;;;15.8;60.5
76044;BME280;64740;34.694;33.088;2022-12-29T17:29:44;1049.4;;;15.9;60.4
76044;BME280;64740;34.694;33.088;2022-12-29T17:35:18;1049.4;;;17;58.1
76044;BME280;64740;34.694;33.088;2022-12-29T17:39:56;1049.4;;;17;58.1
76044;BME280;64740;34.694;33.088;2022-12-29T17:45:20;1049.4;;;17.8;56.1
76044;BME280;64740;34.694;33.088;2022-12-29T17:50:11;1049.4;;;17.8;56.1
76044;BME280;64740;34.694;33.088;2022-12-29T17:55:19;1049.5;;;18.3;54.8
76044;BME280;64740;34.694;33.088;2022-12-29T18:00:19;1049.4;;;18.5;54.3
76044;BME280;64740;34.694;33.088;2022-12-29T18:04:46;1049.4;;;18.5;54.3
76044;BME280;64740;34.694;33.088;2022-12-29T18:10:10;1049.5;;;18.6;53.9
76044;BME280;64740;34.694;33.088;2022-12-29T18:15:15;1049.5;;;18.7;53.4
76044;BME280;64740;34.694;33.088;2022-12-29T18:20:10;1049.5;;;18.8;53.1
76044;BME280;64740;34.694;33.088;2022-12-29T18:25:21;1049.4;;;18.9;52.6
76044;BME280;64740;34.694;33.088;2022-12-29T18:30:08;1049.4;;;18.9;52.6
76044;BME280;64740;34.694;33.088;2022-12-29T18:35:14;1049.4;;;18.9;52.4
76044;BME280;64740;34.694;33.088;2022-12-29T18:40:10;1049.5;;;19;52.2
76044;BME280;64740;34.694;33.088;2022-12-29T18:45:12;1049.5;;;18.9;52
76044;BME280;64740;34.694;33.088;2022-12-29T18:50:18;1049.5;;;18.9;51.8
76044;BME280;64740;34.694;33.088;2022-12-29T18:54:34;1049.5;;;18.9;51.8
76044;BME280;64740;34.694;33.088;2022-12-29T19:00:11;1049.6;;;18.9;51.7
76044;BME280;64740;34.694;33.088;2022-12-29T19:04:58;1049.6;;;19;51.6
76044;BME280;64740;34.694;33.088;2022-12-29T19:09:56;1049.6;;;18.9;51.4
76044;BME280;64740;34.694;33.088;2022-12-29T19:15:20;1049.6;;;18.9;51.4
76044;BME280;64740;34.694;33.088;2022-12-29T19:19:56;1049.6;;;18.9;51.4
76044;BME280;64740;34.694;33.088;2022-12-29T19:24:34;1049.6;;;18.9;51.4
76044;BME280;64740;34.694;33.088;2022-12-29T19:29:54;1049.6;;;18.9;51.2
76044;BME280;64740;34.694;33.088;2022-12-29T19:35:08;1049.6;;;18.9;51.1
76044;BME280;64740;34.694;33.088;2022-12-29T19:40:19;1049.6;;;18.9;51.1
76044;BME280;64740;34.694;33.088;2022-12-29T19:45:08;1049.6;;;18.9;51.1
76044;BME280;64740;34.694;33.088;2022-12-29T19:50:11;1049.6;;;18.9;50.8
76044;BME280;64740;34.694;33.088;2022-12-29T19:54:56;1049.6;;;18.8;50.9
76044;BME280;64740;34.694;33.088;2022-12-29T20:00:12;1049.6;;;18.8;50.9
76044;BME280;64740;34.694;33.088;2022-12-29T20:05:20;1049.6;;;18.7;50.9
76044;BME280;64740;34.694;33.088;2022-12-29T20:09:46;1049.6;;;18.7;50.9
76044;BME280;64740;34.694;33.088;2022-12-29T20:14:58;1049.6;;;18.7;51
76044;BME280;64740;34.694;33.088;2022-12-29T20:20:10;1049.6;;;18.7;50.9
76044;BME280;64740;34.694;33.088;2022-12-29T20:24:58;1049.6;;;18.6;50.8
76044;BME280;64740;34.694;33.088;2022-12-29T20:30:18;1049.6;;;18.6;50.9
76044;BME280;64740;34.694;33.088;2022-12-29T20:34:56;1049.6;;;18.6;50.9
76044;BME280;64740;34.694;33.088;2022-12-29T20:40:08;1049.6;;;18.6;50.9
76044;BME280;64740;34.694;33.088;2022-12-29T20:44:44;1049.6;;;18.6;51.1
76044;BME280;64740;34.694;33.088;2022-12-29T20:49:46;1049.6;;;18.6;51.1
76044;BME280;64740;34.694;33.088;2022-12-29T20:55:18;1049.5;;;18.5;50.9
76044;BME280;64740;34.694;33.088;2022-12-29T20:59:42;1049.5;;;18.5;50.9
76044;BME280;64740;34.694;33.088;2022-12-29T21:04:58;1049.5;;;18.5;51
76044;BME280;64740;34.694;33.088;2022-12-29T21:10:08;1049.5;;;18.4;51.1
76044;BME280;64740;34.694;33.088;2022-12-29T21:15:06;1049.4;;;18.5;51
76044;BME280;64740;34.694;33.088;2022-12-29T21:20:18;1049.3;;;18.5;51.1
76044;BME280;64740;34.694;33.088;2022-12-29T21:24:34;1049.3;;;18.5;51.1
76044;BME280;64740;34.694;33.088;2022-12-29T21:30:18;1049.3;;;18.5;51.1
76044;BME280;64740;34.694;33.088;2022-12-29T21:34:36;1049.3;;;18.5;51.1
76044;BME280;64740;34.694;33.088;2022-12-29T21:39:34;1049.3;;;18.5;51.2
76044;BME280;64740;34.694;33.088;2022-12-29T21:44:46;1049.2;;;18.4;51.1
76044;BME280;64740;34.694;33.088;2022-12-29T21:49:34;1049.2;;;18.3;51.2
76044;BME280;64740;34.694;33.088;2022-12-29T21:55:20;1049.1;;;18.4;51.3
76044;BME280;64740;34.694;33.088;2022-12-29T21:59:34;1049.1;;;18.4;51.3
76044;BME280;64740;34.694;33.088;2022-12-29T22:05:09;1049.1;;;18.4;51.2
76044;BME280;64740;34.694;33.088;2022-12-29T22:10:08;1049;;;18.3;51.1
76044;BME280;64740;34.694;33.088;2022-12-29T22:14:46;1049;;;18.3;51.1
76044;BME280;64740;34.694;33.088;2022-12-29T22:20:17;1049;;;18.2;51.4
76044;BME280;64740;34.694;33.088;2022-12-29T22:25:06;1049;;;18.2;51.4
76044;BME280;64740;34.694;33.088;2022-12-29T22:29:46;1049;;;18.2;51.5
76044;BME280;64740;34.694;33.088;2022-12-29T22:34:58;1049;;;18.2;51.3
76044;BME280;64740;34.694;33.088;2022-12-29T22:39:55;1048.9;;;18.2;51.3
76044;BME280;64740;34.694;33.088;2022-12-29T22:45:18;1048.9;;;18.2;51
76044;BME280;64740;34.694;33.088;2022-12-29T22:49:34;1048.9;;;18.2;51
76044;BME280;64740;34.694;33.088;2022-12-29T22:55:06;1048.9;;;18.1;51
76044;BME280;64740;34.694;33.088;2022-12-29T23:00:06;1048.9;;;18.1;50.8
76044;BME280;64740;34.694;33.088;2022-12-29T23:05:04;1048.9;;;18.1;50.6
76044;BME280;64740;34.694;33.088;2022-12-29T23:10:12;1048.9;;;17.9;50.9
76044;BME280;64740;34.694;33.088;2022-12-29T23:15:02;1048.9;;;17.9;50.9
76044;BME280;64740;34.694;33.088;2022-12-29T23:19:34;1048.9;;;18;51
76044;BME280;64740;34.694;33.088;2022-12-29T23:24:52;1049;;;18;51
76044;BME280;64740;34.694;33.088;2022-12-29T23:29:52;1049;;;18;51.2
76044;BME280;64740;34.694;33.088;2022-12-29T23:35:16;1049;;;18;51.3
76044;BME280;64740;34.694;33.088;2022-12-29T23:39:34;1049;;;18;51.3
76044;BME280;64740;34.694;33.088;2022-12-29T23:45:04;1049;;;18.1;51.3
76044;BME280;64740;34.694;33.088;2022-12-29T23:50:06;1049;;;18.1;51.4
76044;BME280;64740;34.694;33.088;2022-12-29T23:54:44;1049.1;;;18.1;51.3
